sensor_id;sensor_type;location;lat;lon;timestamp;pressure;altitude;pressure_sealevel;temperature
57468;BMP280;43311;51.196;7.518;2023-08-01T00:01:08;95392.19;;;15.49
57468;BMP280;43311;51.196;7.518;2023-08-01T00:03:33;95368.19;;;15.47
57468;BMP280;43311;51.196;7.518;2023-08-01T00:05:59;95393.47;;;15.53
57468;BMP280;43311;51.196;7.518;2023-08-01T00:08:33;95385.53;;;15.53
57468;BMP280;43311;51.196;7.518;2023-08-01T00:10:59;95365.66;;;15.58
57468;BMP280;43311;51.196;7.518;2023-08-01T00:13:24;95375.94;;;15.56
57468;BMP280;43311;51.196;7.518;2023-08-01T00:15:50;95387.09;;;15.65
57468;BMP280;43311;51.196;7.518;2023-08-01T00:18:15;95378.41;;;15.65
57468;BMP280;43311;51.196;7.518;2023-08-01T00:20:40;95375.53;;;15.63
57468;BMP280;43311;51.196;7.518;2023-08-01T00:23:06;95378.13;;;15.57
57468;BMP280;43311;51.196;7.518;2023-08-01T00:25:31;95365.38;;;15.56
57468;BMP280;43311;51.196;7.518;2023-08-01T00:27:57;95372.13;;;15.57
57468;BMP280;43311;51.196;7.518;2023-08-01T00:30:23;95372.13;;;15.57
57468;BMP280;43311;51.196;7.518;2023-08-01T00:32:48;95367.09;;;15.59
57468;BMP280;43311;51.196;7.518;2023-08-01T00:35:14;95372.22;;;15.68
57468;BMP280;43311;51.196;7.518;2023-08-01T00:37:39;95368.78;;;15.62
57468;BMP280;43311;51.196;7.518;2023-08-01T00:40:05;95355.84;;;15.64
57468;BMP280;43311;51.196;7.518;2023-08-01T00:42:31;95354.91;;;15.67
57468;BMP280;43311;51.196;7.518;2023-08-01T00:44:56;95334.72;;;15.64
57468;BMP280;43311;51.196;7.518;2023-08-01T00:47:21;95317.16;;;15.61
57468;BMP280;43311;51.196;7.518;2023-08-01T00:49:47;95320.28;;;15.65
57468;BMP280;43311;51.196;7.518;2023-08-01T00:52:13;95313.03;;;15.60
57468;BMP280;43311;51.196;7.518;2023-08-01T00:54:38;95310.41;;;15.60
57468;BMP280;43311;51.196;7.518;2023-08-01T00:57:04;95305.38;;;15.62
57468;BMP280;43311;51.196;7.518;2023-08-01T00:59:30;95307.47;;;15.52
57468;BMP280;43311;51.196;7.518;2023-08-01T01:01:56;95311.09;;;15.55
57468;BMP280;43311;51.196;7.518;2023-08-01T01:04:22;95314.25;;;15.59
57468;BMP280;43311;51.196;7.518;2023-08-01T01:06:51;95318.34;;;15.60
57468;BMP280;43311;51.196;7.518;2023-08-01T01:09:19;95325.75;;;15.56
57468;BMP280;43311;51.196;7.518;2023-08-01T01:11:45;95333.25;;;15.63
57468;BMP280;43311;51.196;7.518;2023-08-01T01:14:11;95298.88;;;15.57
57468;BMP280;43311;51.196;7.518;2023-08-01T01:16:36;95274.41;;;15.62
57468;BMP280;43311;51.196;7.518;2023-08-01T01:19:06;95243.66;;;15.59
57468;BMP280;43311;51.196;7.518;2023-08-01T01:21:34;95237.88;;;15.55
57468;BMP280;43311;51.196;7.518;2023-08-01T01:24:00;95268.13;;;15.54
57468;BMP280;43311;51.196;7.518;2023-08-01T01:26:26;95284.47;;;15.58
57468;BMP280;43311;51.196;7.518;2023-08-01T01:28:52;95281.13;;;15.63
57468;BMP280;43311;51.196;7.518;2023-08-01T01:31:18;95261.25;;;15.68
57468;BMP280;43311;51.196;7.518;2023-08-01T01:33:44;95244.44;;;15.71
57468;BMP280;43311;51.196;7.518;2023-08-01T01:36:09;95246.84;;;15.69
57468;BMP280;43311;51.196;7.518;2023-08-01T01:38:35;95259.88;;;15.77
57468;BMP280;43311;51.196;7.518;2023-08-01T01:41:00;95241.38;;;15.77
57468;BMP280;43311;51.196;7.518;2023-08-01T01:43:26;95239.97;;;15.82
57468;BMP280;43311;51.196;7.518;2023-08-01T01:45:51;95237.53;;;15.78
57468;BMP280;43311;51.196;7.518;2023-08-01T01:48:16;95238.00;;;15.77
57468;BMP280;43311;51.196;7.518;2023-08-01T01:50:42;95217.09;;;15.73
57468;BMP280;43311;51.196;7.518;2023-08-01T01:53:07;95227.72;;;15.84
57468;BMP280;43311;51.196;7.518;2023-08-01T01:55:33;95234.47;;;15.85
57468;BMP280;43311;51.196;7.518;2023-08-01T01:58:00;95219.78;;;15.84
57468;BMP280;43311;51.196;7.518;2023-08-01T02:00:25;95222.44;;;15.84
57468;BMP280;43311;51.196;7.518;2023-08-01T02:02:51;95229.94;;;15.91
57468;BMP280;43311;51.196;7.518;2023-08-01T02:05:16;95221.03;;;15.94
57468;BMP280;43311;51.196;7.518;2023-08-01T02:07:41;95221.25;;;15.91
57468;BMP280;43311;51.196;7.518;2023-08-01T02:10:07;95242.19;;;15.94
57468;BMP280;43311;51.196;7.518;2023-08-01T02:12:33;95244.59;;;15.92
57468;BMP280;43311;51.196;7.518;2023-08-01T02:15:01;95225.41;;;15.97
57468;BMP280;43311;51.196;7.518;2023-08-01T02:17:26;95224.94;;;16.04
57468;BMP280;43311;51.196;7.518;2023-08-01T02:19:51;95223.75;;;16.05
57468;BMP280;43311;51.196;7.518;2023-08-01T02:22:17;95226.38;;;16.00
57468;BMP280;43311;51.196;7.518;2023-08-01T02:24:42;95234.78;;;16.04
57468;BMP280;43311;51.196;7.518;2023-08-01T02:27:08;95223.75;;;16.05
57468;BMP280;43311;51.196;7.518;2023-08-01T02:29:33;95217.91;;;15.96
57468;BMP280;43311;51.196;7.518;2023-08-01T02:31:59;95223.19;;;15.90
57468;BMP280;43311;51.196;7.518;2023-08-01T02:34:24;95232.56;;;15.91
57468;BMP280;43311;51.196;7.518;2023-08-01T02:36:49;95242.63;;;15.87
57468;BMP280;43311;51.196;7.518;2023-08-01T02:39:15;95242.88;;;15.89
57468;BMP280;43311;51.196;7.518;2023-08-01T02:41:40;95233.75;;;15.90
57468;BMP280;43311;51.196;7.518;2023-08-01T02:44:06;95215.69;;;15.83
57468;BMP280;43311;51.196;7.518;2023-08-01T02:46:31;95231.06;;;15.85
57468;BMP280;43311;51.196;7.518;2023-08-01T02:48:56;95233.91;;;15.76
57468;BMP280;43311;51.196;7.518;2023-08-01T02:51:22;95238.72;;;15.77
57468;BMP280;43311;51.196;7.518;2023-08-01T02:53:47;95241.38;;;15.77
57468;BMP280;43311;51.196;7.518;2023-08-01T02:56:12;95241.84;;;15.76
57468;BMP280;43311;51.196;7.518;2023-08-01T02:58:38;95240.69;;;15.82
57468;BMP280;43311;51.196;7.518;2023-08-01T03:01:07;95220.66;;;15.71
57468;BMP280;43311;51.196;7.518;2023-08-01T03:03:35;95227.66;;;15.73
57468;BMP280;43311;51.196;7.518;2023-08-01T03:06:01;95231.47;;;15.73
57468;BMP280;43311;51.196;7.518;2023-08-01T03:08:27;95222.81;;;15.67
57468;BMP280;43311;51.196;7.518;2023-08-01T03:10:54;95214.59;;;15.65
57468;BMP280;43311;51.196;7.518;2023-08-01T03:13:19;95225.19;;;15.65
57468;BMP280;43311;51.196;7.518;2023-08-01T03:15:44;95227.19;;;15.75
57468;BMP280;43311;51.196;7.518;2023-08-01T03:18:10;95228.13;;;15.72
57468;BMP280;43311;51.196;7.518;2023-08-01T03:20:35;95231.47;;;15.73
57468;BMP280;43311;51.196;7.518;2023-08-01T03:23:01;95226.84;;;15.62
57468;BMP280;43311;51.196;7.518;2023-08-01T03:25:27;95229.03;;;15.64
57468;BMP280;43311;51.196;7.518;2023-08-01T03:27:54;95239.59;;;15.64
57468;BMP280;43311;51.196;7.518;2023-08-01T03:30:20;95234.53;;;15.60
57468;BMP280;43311;51.196;7.518;2023-08-01T03:32:46;95233.50;;;15.52
57468;BMP280;43311;51.196;7.518;2023-08-01T03:35:13;95237.56;;;15.48
57468;BMP280;43311;51.196;7.518;2023-08-01T03:37:41;95240.88;;;15.43
57468;BMP280;43311;51.196;7.518;2023-08-01T03:40:07;95236.56;;;15.45
57468;BMP280;43311;51.196;7.518;2023-08-01T03:42:36;95239.94;;;15.46
57468;BMP280;43311;51.196;7.518;2023-08-01T03:45:03;95244.19;;;15.38
57468;BMP280;43311;51.196;7.518;2023-08-01T03:47:29;95250.44;;;15.35
57468;BMP280;43311;51.196;7.518;2023-08-01T03:49:54;95250.63;;;15.31
57468;BMP280;43311;51.196;7.518;2023-08-01T03:52:20;95248.28;;;15.39
57468;BMP280;43311;51.196;7.518;2023-08-01T03:54:45;95252.59;;;15.36
57468;BMP280;43311;51.196;7.518;2023-08-01T03:57:11;95255.41;;;15.27
57468;BMP280;43311;51.196;7.518;2023-08-01T03:59:36;95253.75;;;15.30
57468;BMP280;43311;51.196;7.518;2023-08-01T04:02:03;95263.16;;;15.11
57468;BMP280;43311;51.196;7.518;2023-08-01T04:04:29;95255.91;;;15.06
57468;BMP280;43311;51.196;7.518;2023-08-01T04:06:56;95261.38;;;15.02
57468;BMP280;43311;51.196;7.518;2023-08-01T04:09:21;95268.03;;;14.93
57468;BMP280;43311;51.196;7.518;2023-08-01T04:11:46;95270.34;;;14.85
57468;BMP280;43311;51.196;7.518;2023-08-01T04:14:12;95279.19;;;14.82
57468;BMP280;43311;51.196;7.518;2023-08-01T04:16:37;95271.94;;;14.77
57468;BMP280;43311;51.196;7.518;2023-08-01T04:19:02;95277.13;;;14.72
57468;BMP280;43311;51.196;7.518;2023-08-01T04:21:28;95291.00;;;14.67
57468;BMP280;43311;51.196;7.518;2023-08-01T04:23:53;95303.47;;;14.66
57468;BMP280;43311;51.196;7.518;2023-08-01T04:26:19;95295.28;;;14.64
57468;BMP280;43311;51.196;7.518;2023-08-01T04:28:46;95299.88;;;14.69
57468;BMP280;43311;51.196;7.518;2023-08-01T04:31:12;95294.75;;;14.60
57468;BMP280;43311;51.196;7.518;2023-08-01T04:33:37;95296.59;;;14.54
57468;BMP280;43311;51.196;7.518;2023-08-01T04:36:03;95296.81;;;14.51
57468;BMP280;43311;51.196;7.518;2023-08-01T04:38:28;95299.16;;;14.49
57468;BMP280;43311;51.196;7.518;2023-08-01T04:40:53;95292.00;;;14.49
57468;BMP280;43311;51.196;7.518;2023-08-01T04:43:19;95302.88;;;14.37
57468;BMP280;43311;51.196;7.518;2023-08-01T04:45:45;95300.25;;;14.37
57468;BMP280;43311;51.196;7.518;2023-08-01T04:48:10;95304.56;;;14.40
57468;BMP280;43311;51.196;7.518;2023-08-01T04:50:35;95307.06;;;14.29
57468;BMP280;43311;51.196;7.518;2023-08-01T04:53:01;95300.91;;;14.18
57468;BMP280;43311;51.196;7.518;2023-08-01T04:55:26;95305.56;;;14.23
57468;BMP280;43311;51.196;7.518;2023-08-01T04:57:51;95310.94;;;14.14
57468;BMP280;43311;51.196;7.518;2023-08-01T05:00:17;95312.66;;;14.17
57468;BMP280;43311;51.196;7.518;2023-08-01T05:02:42;95318.19;;;14.19
57468;BMP280;43311;51.196;7.518;2023-08-01T05:05:08;95322.22;;;14.14
57468;BMP280;43311;51.196;7.518;2023-08-01T05:07:33;95326.03;;;14.13
57468;BMP280;43311;51.196;7.518;2023-08-01T05:09:59;95329.13;;;14.12
57468;BMP280;43311;51.196;7.518;2023-08-01T05:12:24;95331.56;;;14.15
57468;BMP280;43311;51.196;7.518;2023-08-01T05:14:50;95325.28;;;14.13
57468;BMP280;43311;51.196;7.518;2023-08-01T05:17:15;95332.75;;;14.14
57468;BMP280;43311;51.196;7.518;2023-08-01T05:19:41;95330.56;;;14.13
57468;BMP280;43311;51.196;7.518;2023-08-01T05:22:06;95337.91;;;14.09
57468;BMP280;43311;51.196;7.518;2023-08-01T05:24:31;95333.19;;;14.13
57468;BMP280;43311;51.196;7.518;2023-08-01T05:26:57;95341.91;;;14.19
57468;BMP280;43311;51.196;7.518;2023-08-01T05:29:22;95332.56;;;14.18
57468;BMP280;43311;51.196;7.518;2023-08-01T05:31:48;95337.19;;;14.23
57468;BMP280;43311;51.196;7.518;2023-08-01T05:34:13;95328.91;;;14.15
57468;BMP280;43311;51.196;7.518;2023-08-01T05:36:38;95339.28;;;14.19
57468;BMP280;43311;51.196;7.518;2023-08-01T05:39:04;95337.28;;;14.14
57468;BMP280;43311;51.196;7.518;2023-08-01T05:41:29;95345.28;;;14.19
57468;BMP280;43311;51.196;7.518;2023-08-01T05:43:56;95355.19;;;14.24
57468;BMP280;43311;51.196;7.518;2023-08-01T05:46:22;95357.06;;;14.24
57468;BMP280;43311;51.196;7.518;2023-08-01T05:48:47;95356.19;;;14.27
57468;BMP280;43311;51.196;7.518;2023-08-01T05:51:12;95360.53;;;14.30
57468;BMP280;43311;51.196;7.518;2023-08-01T05:53:38;95351.09;;;14.23
57468;BMP280;43311;51.196;7.518;2023-08-01T05:56:03;95354.34;;;14.33
57468;BMP280;43311;51.196;7.518;2023-08-01T05:58:30;95359.63;;;14.33
57468;BMP280;43311;51.196;7.518;2023-08-01T06:00:55;95355.44;;;14.26
57468;BMP280;43311;51.196;7.518;2023-08-01T06:03:21;95366.91;;;14.23
57468;BMP280;43311;51.196;7.518;2023-08-01T06:05:46;95366.06;;;14.32
57468;BMP280;43311;51.196;7.518;2023-08-01T06:08:12;95360.00;;;14.26
57468;BMP280;43311;51.196;7.518;2023-08-01T06:10:38;95364.53;;;14.25
57468;BMP280;43311;51.196;7.518;2023-08-01T06:13:04;95367.38;;;14.22
57468;BMP280;43311;51.196;7.518;2023-08-01T06:15:30;95366.38;;;14.19
57468;BMP280;43311;51.196;7.518;2023-08-01T06:17:55;95369.63;;;14.29
57468;BMP280;43311;51.196;7.518;2023-08-01T06:20:20;95372.00;;;14.27
57468;BMP280;43311;51.196;7.518;2023-08-01T06:22:46;95368.91;;;14.28
57468;BMP280;43311;51.196;7.518;2023-08-01T06:25:11;95373.69;;;14.30
57468;BMP280;43311;51.196;7.518;2023-08-01T06:27:37;95373.78;;;14.35
57468;BMP280;43311;51.196;7.518;2023-08-01T06:30:03;95378.88;;;14.38
57468;BMP280;43311;51.196;7.518;2023-08-01T06:32:29;95374.25;;;14.34
57468;BMP280;43311;51.196;7.518;2023-08-01T06:34:55;95361.44;;;14.27
57468;BMP280;43311;51.196;7.518;2023-08-01T06:37:22;95370.16;;;14.33
57468;BMP280;43311;51.196;7.518;2023-08-01T06:39:48;95350.63;;;14.25
57468;BMP280;43311;51.196;7.518;2023-08-01T06:42:15;95353.00;;;14.23
57468;BMP280;43311;51.196;7.518;2023-08-01T06:44:41;95383.69;;;14.40
57468;BMP280;43311;51.196;7.518;2023-08-01T06:47:08;95370.69;;;14.36
57468;BMP280;43311;51.196;7.518;2023-08-01T06:49:34;95366.50;;;14.44
57468;BMP280;43311;51.196;7.518;2023-08-01T06:52:01;95374.94;;;14.48
57468;BMP280;43311;51.196;7.518;2023-08-01T06:54:28;95379.16;;;14.60
57468;BMP280;43311;51.196;7.518;2023-08-01T06:56:54;95386.41;;;14.65
57468;BMP280;43311;51.196;7.518;2023-08-01T06:59:20;95378.22;;;14.63
57468;BMP280;43311;51.196;7.518;2023-08-01T07:01:45;95376.81;;;14.62
57468;BMP280;43311;51.196;7.518;2023-08-01T07:04:11;95380.34;;;14.59
57468;BMP280;43311;51.196;7.518;2023-08-01T07:06:37;95375.41;;;14.47
57468;BMP280;43311;51.196;7.518;2023-08-01T07:09:03;95390.84;;;14.54
57468;BMP280;43311;51.196;7.518;2023-08-01T07:11:29;95389.75;;;14.46
57468;BMP280;43311;51.196;7.518;2023-08-01T07:13:55;95393.78;;;14.41
57468;BMP280;43311;51.196;7.518;2023-08-01T07:16:20;95398.31;;;14.41
57468;BMP280;43311;51.196;7.518;2023-08-01T07:18:47;95391.59;;;14.40
57468;BMP280;43311;51.196;7.518;2023-08-01T07:21:18;95396.69;;;14.43
57468;BMP280;43311;51.196;7.518;2023-08-01T07:23:46;95402.50;;;14.33
57468;BMP280;43311;51.196;7.518;2023-08-01T07:26:14;95398.66;;;14.48
57468;BMP280;43311;51.196;7.518;2023-08-01T07:28:41;95399.38;;;14.83
57468;BMP280;43311;51.196;7.518;2023-08-01T07:31:07;95402.78;;;15.09
57468;BMP280;43311;51.196;7.518;2023-08-01T07:33:37;95404.38;;;15.21
57468;BMP280;43311;51.196;7.518;2023-08-01T07:36:03;95408.47;;;15.42
57468;BMP280;43311;51.196;7.518;2023-08-01T07:38:28;95409.78;;;15.52
57468;BMP280;43311;51.196;7.518;2023-08-01T07:40:54;95411.06;;;15.62
57468;BMP280;43311;51.196;7.518;2023-08-01T07:43:20;95413.44;;;15.60
57468;BMP280;43311;51.196;7.518;2023-08-01T07:45:45;95417.31;;;15.39
57468;BMP280;43311;51.196;7.518;2023-08-01T07:48:11;95419.84;;;15.28
57468;BMP280;43311;51.196;7.518;2023-08-01T07:50:36;95421.69;;;15.02
57468;BMP280;43311;51.196;7.518;2023-08-01T07:53:02;95411.56;;;15.01
57468;BMP280;43311;51.196;7.518;2023-08-01T07:55:27;95419.56;;;15.06
57468;BMP280;43311;51.196;7.518;2023-08-01T07:57:53;95409.84;;;15.17
57468;BMP280;43311;51.196;7.518;2023-08-01T08:00:18;95416.03;;;15.29
57468;BMP280;43311;51.196;7.518;2023-08-01T08:02:45;95420.94;;;15.41
57468;BMP280;43311;51.196;7.518;2023-08-01T08:05:10;95419.56;;;15.26
57468;BMP280;43311;51.196;7.518;2023-08-01T08:07:37;95423.50;;;15.16
57468;BMP280;43311;51.196;7.518;2023-08-01T08:10:03;95420.75;;;15.05
57468;BMP280;43311;51.196;7.518;2023-08-01T08:12:28;95430.44;;;15.13
57468;BMP280;43311;51.196;7.518;2023-08-01T08:14:54;95426.81;;;15.11
57468;BMP280;43311;51.196;7.518;2023-08-01T08:17:19;95428.28;;;15.12
57468;BMP280;43311;51.196;7.518;2023-08-01T08:19:46;95429.06;;;15.18
57468;BMP280;43311;51.196;7.518;2023-08-01T08:22:12;95430.13;;;15.06
57468;BMP280;43311;51.196;7.518;2023-08-01T08:24:37;95432.97;;;15.02
57468;BMP280;43311;51.196;7.518;2023-08-01T08:27:03;95433.09;;;15.13
57468;BMP280;43311;51.196;7.518;2023-08-01T08:29:30;95430.84;;;15.46
57468;BMP280;43311;51.196;7.518;2023-08-01T08:31:55;95432.81;;;15.51
57468;BMP280;43311;51.196;7.518;2023-08-01T08:34:20;95436.88;;;15.72
57468;BMP280;43311;51.196;7.518;2023-08-01T08:36:46;95435.22;;;15.74
57468;BMP280;43311;51.196;7.518;2023-08-01T08:39:11;95435.66;;;15.98
57468;BMP280;43311;51.196;7.518;2023-08-01T08:41:45;95434.16;;;15.92
57468;BMP280;43311;51.196;7.518;2023-08-01T08:44:14;95421.94;;;15.94
57468;BMP280;43311;51.196;7.518;2023-08-01T08:46:44;95436.84;;;16.23
57468;BMP280;43311;51.196;7.518;2023-08-01T08:49:10;95445.50;;;16.23
57468;BMP280;43311;51.196;7.518;2023-08-01T08:51:37;95445.47;;;16.18
57468;BMP280;43311;51.196;7.518;2023-08-01T08:54:07;95440.13;;;16.12
57468;BMP280;43311;51.196;7.518;2023-08-01T08:56:34;95450.97;;;16.14
57468;BMP280;43311;51.196;7.518;2023-08-01T08:59:00;95458.03;;;15.97
57468;BMP280;43311;51.196;7.518;2023-08-01T09:01:26;95453.84;;;16.16
57468;BMP280;43311;51.196;7.518;2023-08-01T09:03:51;95448.94;;;16.29
57468;BMP280;43311;51.196;7.518;2023-08-01T09:06:24;95456.44;;;16.36
57468;BMP280;43311;51.196;7.518;2023-08-01T09:08:51;95451.59;;;16.29
57468;BMP280;43311;51.196;7.518;2023-08-01T09:11:20;95442.81;;;16.18
57468;BMP280;43311;51.196;7.518;2023-08-01T09:13:47;95440.13;;;16.12
57468;BMP280;43311;51.196;7.518;2023-08-01T09:16:13;95448.81;;;16.18
57468;BMP280;43311;51.196;7.518;2023-08-01T09:18:52;95451.88;;;16.11
57468;BMP280;43311;51.196;7.518;2023-08-01T09:21:30;95464.53;;;16.02
57468;BMP280;43311;51.196;7.518;2023-08-01T09:24:08;95459.78;;;15.80
57468;BMP280;43311;51.196;7.518;2023-08-01T09:26:33;95442.66;;;15.51
57468;BMP280;43311;51.196;7.518;2023-08-01T09:28:59;95459.22;;;15.71
57468;BMP280;43311;51.196;7.518;2023-08-01T09:31:33;95464.97;;;15.95
57468;BMP280;43311;51.196;7.518;2023-08-01T09:33:59;95457.22;;;16.17
57468;BMP280;43311;51.196;7.518;2023-08-01T09:36:25;95442.78;;;16.79
57468;BMP280;43311;51.196;7.518;2023-08-01T09:38:58;95451.75;;;17.40
57468;BMP280;43311;51.196;7.518;2023-08-01T09:41:24;95454.53;;;17.89
57468;BMP280;43311;51.196;7.518;2023-08-01T09:43:50;95455.50;;;17.97
57468;BMP280;43311;51.196;7.518;2023-08-01T09:46:15;95462.66;;;17.58
57468;BMP280;43311;51.196;7.518;2023-08-01T09:48:41;95455.81;;;17.35
57468;BMP280;43311;51.196;7.518;2023-08-01T09:51:11;95459.38;;;17.21
57468;BMP280;43311;51.196;7.518;2023-08-01T09:53:50;95467.44;;;17.02
57468;BMP280;43311;51.196;7.518;2023-08-01T09:56:17;95465.06;;;17.04
57468;BMP280;43311;51.196;7.518;2023-08-01T09:58:44;95469.09;;;16.94
57468;BMP280;43311;51.196;7.518;2023-08-01T10:01:11;95461.13;;;16.88
57468;BMP280;43311;51.196;7.518;2023-08-01T10:03:39;95465.22;;;17.36
57468;BMP280;43311;51.196;7.518;2023-08-01T10:06:05;95457.38;;;17.64
57468;BMP280;43311;51.196;7.518;2023-08-01T10:08:30;95470.16;;;17.76
57468;BMP280;43311;51.196;7.518;2023-08-01T10:10:58;95462.72;;;17.85
57468;BMP280;43311;51.196;7.518;2023-08-01T10:13:24;95464.63;;;17.85
57468;BMP280;43311;51.196;7.518;2023-08-01T10:15:51;95461.06;;;17.99
57468;BMP280;43311;51.196;7.518;2023-08-01T10:18:17;95457.44;;;18.07
57468;BMP280;43311;51.196;7.518;2023-08-01T10:20:43;95457.97;;;18.28
57468;BMP280;43311;51.196;7.518;2023-08-01T10:23:09;95455.28;;;18.71
57468;BMP280;43311;51.196;7.518;2023-08-01T10:25:37;95450.16;;;18.90
57468;BMP280;43311;51.196;7.518;2023-08-01T10:28:05;95464.19;;;18.85
57468;BMP280;43311;51.196;7.518;2023-08-01T10:30:31;95447.78;;;18.64
57468;BMP280;43311;51.196;7.518;2023-08-01T10:32:57;95453.78;;;18.92
57468;BMP280;43311;51.196;7.518;2023-08-01T10:35:41;95460.03;;;19.11
57468;BMP280;43311;51.196;7.518;2023-08-01T10:38:11;95453.25;;;19.21
57468;BMP280;43311;51.196;7.518;2023-08-01T10:40:38;95464.16;;;19.12
57468;BMP280;43311;51.196;7.518;2023-08-01T10:43:04;95453.25;;;19.21
57468;BMP280;43311;51.196;7.518;2023-08-01T10:45:30;95456.16;;;19.23
57468;BMP280;43311;51.196;7.518;2023-08-01T10:48:11;95446.09;;;18.72
57468;BMP280;43311;51.196;7.518;2023-08-01T10:50:37;95451.19;;;18.49
57468;BMP280;43311;51.196;7.518;2023-08-01T10:53:07;95461.09;;;18.32
57468;BMP280;43311;51.196;7.518;2023-08-01T10:55:45;95461.28;;;17.90
57468;BMP280;43311;51.196;7.518;2023-08-01T10:58:11;95463.66;;;17.72
57468;BMP280;43311;51.196;7.518;2023-08-01T11:00:37;95465.84;;;17.84
57468;BMP280;43311;51.196;7.518;2023-08-01T11:03:02;95462.53;;;18.11
57468;BMP280;43311;51.196;7.518;2023-08-01T11:05:28;95464.94;;;18.31
57468;BMP280;43311;51.196;7.518;2023-08-01T11:07:59;95465.44;;;18.56
57468;BMP280;43311;51.196;7.518;2023-08-01T11:10:26;95467.81;;;18.93
57468;BMP280;43311;51.196;7.518;2023-08-01T11:12:52;95464.88;;;19.13
57468;BMP280;43311;51.196;7.518;2023-08-01T11:15:19;95467.75;;;19.20
57468;BMP280;43311;51.196;7.518;2023-08-01T11:17:49;95463.91;;;19.10
57468;BMP280;43311;51.196;7.518;2023-08-01T11:20:15;95474.06;;;18.90
57468;BMP280;43311;51.196;7.518;2023-08-01T11:25:30;95480.63;;;18.45
57468;BMP280;43311;51.196;7.518;2023-08-01T11:27:57;95473.88;;;18.44
57468;BMP280;43311;51.196;7.518;2023-08-01T11:30:30;95488.84;;;18.52
57468;BMP280;43311;51.196;7.518;2023-08-01T11:32:55;95477.53;;;18.47
57468;BMP280;43311;51.196;7.518;2023-08-01T11:35:21;95487.38;;;18.68
57468;BMP280;43311;51.196;7.518;2023-08-01T11:37:46;95464.47;;;18.65
57468;BMP280;43311;51.196;7.518;2023-08-01T11:40:12;95470.50;;;18.71
57468;BMP280;43311;51.196;7.518;2023-08-01T11:42:37;95475.78;;;18.93
57468;BMP280;43311;51.196;7.518;2023-08-01T11:45:10;95487.84;;;18.88
57468;BMP280;43311;51.196;7.518;2023-08-01T11:47:36;95482.09;;;18.52
57468;BMP280;43311;51.196;7.518;2023-08-01T11:50:01;95479.66;;;18.53
57468;BMP280;43311;51.196;7.518;2023-08-01T11:52:28;95473.88;;;18.60
57468;BMP280;43311;51.196;7.518;2023-08-01T11:54:54;95474.13;;;18.62
57468;BMP280;43311;51.196;7.518;2023-08-01T11:57:21;95479.19;;;18.50
57468;BMP280;43311;51.196;7.518;2023-08-01T11:59:51;95489.81;;;18.44
57468;BMP280;43311;51.196;7.518;2023-08-01T12:02:35;95487.84;;;18.17
57468;BMP280;43311;51.196;7.518;2023-08-01T12:05:01;95487.59;;;18.10
57468;BMP280;43311;51.196;7.518;2023-08-01T12:07:26;95500.44;;;18.39
57468;BMP280;43311;51.196;7.518;2023-08-01T12:09:59;95492.69;;;18.73
57468;BMP280;43311;51.196;7.518;2023-08-01T12:12:28;95504.28;;;18.76
57468;BMP280;43311;51.196;7.518;2023-08-01T12:14:54;95502.84;;;18.58
57468;BMP280;43311;51.196;7.518;2023-08-01T12:17:21;95501.88;;;18.72
57468;BMP280;43311;51.196;7.518;2023-08-01T12:19:47;95500.66;;;18.84
57468;BMP280;43311;51.196;7.518;2023-08-01T12:22:12;95490.53;;;18.66
57468;BMP280;43311;51.196;7.518;2023-08-01T12:24:38;95512.25;;;18.59
57468;BMP280;43311;51.196;7.518;2023-08-01T12:27:07;95552.97;;;18.18
57468;BMP280;43311;51.196;7.518;2023-08-01T12:29:33;95562.72;;;17.27
57468;BMP280;43311;51.196;7.518;2023-08-01T12:31:59;95565.28;;;16.49
57468;BMP280;43311;51.196;7.518;2023-08-01T12:34:24;95575.88;;;15.84
57468;BMP280;43311;51.196;7.518;2023-08-01T12:36:50;95577.38;;;15.71
57468;BMP280;43311;51.196;7.518;2023-08-01T12:39:15;95570.50;;;15.39
57468;BMP280;43311;51.196;7.518;2023-08-01T12:41:40;95571.78;;;15.43
57468;BMP280;43311;51.196;7.518;2023-08-01T12:44:06;95568.53;;;15.54
57468;BMP280;43311;51.196;7.518;2023-08-01T12:46:31;95564.16;;;15.71
57468;BMP280;43311;51.196;7.518;2023-08-01T12:48:57;95552.03;;;15.78
57468;BMP280;43311;51.196;7.518;2023-08-01T12:51:22;95560.53;;;15.88
57468;BMP280;43311;51.196;7.518;2023-08-01T12:53:48;95561.66;;;15.81
57468;BMP280;43311;51.196;7.518;2023-08-01T12:56:13;95555.34;;;15.73
57468;BMP280;43311;51.196;7.518;2023-08-01T12:58:39;95567.56;;;15.71
57468;BMP280;43311;51.196;7.518;2023-08-01T13:01:05;95553.00;;;16.01
57468;BMP280;43311;51.196;7.518;2023-08-01T13:03:31;95557.19;;;16.13
57468;BMP280;43311;51.196;7.518;2023-08-01T13:05:56;95549.03;;;16.16
57468;BMP280;43311;51.196;7.518;2023-08-01T13:08:23;95542.97;;;16.30
57468;BMP280;43311;51.196;7.518;2023-08-01T13:10:48;95563.28;;;16.44
57468;BMP280;43311;51.196;7.518;2023-08-01T13:13:15;95562.75;;;16.35
57468;BMP280;43311;51.196;7.518;2023-08-01T13:15:41;95566.84;;;16.16
57468;BMP280;43311;51.196;7.518;2023-08-01T13:18:06;95567.25;;;16.09
57468;BMP280;43311;51.196;7.518;2023-08-01T13:20:31;95563.91;;;16.34
57468;BMP280;43311;51.196;7.518;2023-08-01T13:22:57;95556.97;;;16.36
57468;BMP280;43311;51.196;7.518;2023-08-01T13:25:22;95571.75;;;16.48
57468;BMP280;43311;51.196;7.518;2023-08-01T13:27:48;95573.97;;;16.55
57468;BMP280;43311;51.196;7.518;2023-08-01T13:30:13;95573.44;;;16.76
57468;BMP280;43311;51.196;7.518;2023-08-01T13:32:43;95570.09;;;17.17
57468;BMP280;43311;51.196;7.518;2023-08-01T13:35:10;95564.22;;;17.03
57468;BMP280;43311;51.196;7.518;2023-08-01T13:37:35;95560.19;;;17.07
57468;BMP280;43311;51.196;7.518;2023-08-01T13:40:01;95576.22;;;16.93
57468;BMP280;43311;51.196;7.518;2023-08-01T13:42:26;95584.06;;;16.82
57468;BMP280;43311;51.196;7.518;2023-08-01T13:44:54;95577.13;;;16.90
57468;BMP280;43311;51.196;7.518;2023-08-01T13:47:19;95565.84;;;16.95
57468;BMP280;43311;51.196;7.518;2023-08-01T13:49:44;95575.84;;;17.11
57468;BMP280;43311;51.196;7.518;2023-08-01T13:52:10;95564.59;;;17.21
57468;BMP280;43311;51.196;7.518;2023-08-01T13:54:35;95571.72;;;17.40
57468;BMP280;43311;51.196;7.518;2023-08-01T13:57:00;95580.63;;;17.37
57468;BMP280;43311;51.196;7.518;2023-08-01T13:59:26;95571.34;;;17.22
57468;BMP280;43311;51.196;7.518;2023-08-01T14:01:52;95572.38;;;17.30
57468;BMP280;43311;51.196;7.518;2023-08-01T14:04:18;95578.31;;;17.19
57468;BMP280;43311;51.196;7.518;2023-08-01T14:06:43;95580.03;;;17.22